sensor_id;sensor_type;location;lat;lon;timestamp;P1;durP1;ratioP1;P2;durP2;ratioP2
54657;SDS011;56972;43.886;20.354;2022-08-21T00:00:34;46.45;;;37.88;;
54657;SDS011;56972;43.886;20.354;2022-08-21T00:03:03;43.38;;;35.13;;
54657;SDS011;56972;43.886;20.354;2022-08-21T00:05:30;44.33;;;35.63;;
54657;SDS011;56972;43.886;20.354;2022-08-21T00:07:57;44.35;;;36.00;;
54657;SDS011;56972;43.886;20.354;2022-08-21T00:10:23;43.60;;;36.40;;
54657;SDS011;56972;43.886;20.354;2022-08-21T00:12:49;39.97;;;35.17;;
54657;SDS011;56972;43.886;20.354;2022-08-21T00:15:17;40.35;;;35.63;;
54657;SDS011;56972;43.886;20.354;2022-08-21T00:17:44;41.92;;;36.92;;
54657;SDS011;56972;43.886;20.354;2022-08-21T00:20:12;39.63;;;34.88;;
54657;SDS011;56972;43.886;20.354;2022-08-21T00:22:38;39.42;;;30.52;;
54657;SDS011;56972;43.886;20.354;2022-08-21T00:25:04;43.88;;;31.98;;
54657;SDS011;56972;43.886;20.354;2022-08-21T00:27:31;34.33;;;29.42;;
54657;SDS011;56972;43.886;20.354;2022-08-21T00:29:57;34.13;;;28.98;;
54657;SDS011;56972;43.886;20.354;2022-08-21T00:32:24;31.80;;;28.10;;
54657;SDS011;56972;43.886;20.354;2022-08-21T00:34:51;43.53;;;30.17;;
54657;SDS011;56972;43.886;20.354;2022-08-21T00:37:17;37.50;;;28.15;;
54657;SDS011;56972;43.886;20.354;2022-08-21T00:39:44;38.13;;;27.85;;
54657;SDS011;56972;43.886;20.354;2022-08-21T00:42:12;31.25;;;27.85;;
54657;SDS011;56972;43.886;20.354;2022-08-21T00:44:41;32.67;;;29.30;;
54657;SDS011;56972;43.886;20.354;2022-08-21T00:47:07;30.65;;;27.00;;
54657;SDS011;56972;43.886;20.354;2022-08-21T00:49:33;28.50;;;25.42;;
54657;SDS011;56972;43.886;20.354;2022-08-21T00:51:59;25.38;;;20.38;;
54657;SDS011;56972;43.886;20.354;2022-08-21T00:54:27;24.52;;;21.55;;
54657;SDS011;56972;43.886;20.354;2022-08-21T00:56:55;32.70;;;22.55;;
54657;SDS011;56972;43.886;20.354;2022-08-21T00:59:23;23.63;;;21.17;;
54657;SDS011;56972;43.886;20.354;2022-08-21T01:01:49;24.67;;;20.52;;
54657;SDS011;56972;43.886;20.354;2022-08-21T01:04:17;26.23;;;21.75;;
54657;SDS011;56972;43.886;20.354;2022-08-21T01:06:44;21.45;;;19.35;;
54657;SDS011;56972;43.886;20.354;2022-08-21T01:09:11;26.85;;;22.90;;
54657;SDS011;56972;43.886;20.354;2022-08-21T01:11:37;28.58;;;20.25;;
54657;SDS011;56972;43.886;20.354;2022-08-21T01:14:03;31.83;;;20.30;;
54657;SDS011;56972;43.886;20.354;2022-08-21T01:16:29;21.70;;;19.15;;
54657;SDS011;56972;43.886;20.354;2022-08-21T01:18:55;21.23;;;17.25;;
54657;SDS011;56972;43.886;20.354;2022-08-21T01:21:23;21.95;;;17.63;;
54657;SDS011;56972;43.886;20.354;2022-08-21T01:23:50;17.58;;;15.40;;
54657;SDS011;56972;43.886;20.354;2022-08-21T01:26:19;21.02;;;18.38;;
54657;SDS011;56972;43.886;20.354;2022-08-21T01:28:47;20.77;;;17.85;;
54657;SDS011;56972;43.886;20.354;2022-08-21T01:31:15;19.75;;;17.67;;
54657;SDS011;56972;43.886;20.354;2022-08-21T01:33:43;22.08;;;17.92;;
54657;SDS011;56972;43.886;20.354;2022-08-21T01:36:09;21.63;;;19.25;;
54657;SDS011;56972;43.886;20.354;2022-08-21T01:38:35;23.13;;;18.42;;
54657;SDS011;56972;43.886;20.354;2022-08-21T01:41:01;23.75;;;20.15;;
54657;SDS011;56972;43.886;20.354;2022-08-21T01:43:27;22.52;;;20.27;;
54657;SDS011;56972;43.886;20.354;2022-08-21T01:45:53;23.65;;;21.20;;
54657;SDS011;56972;43.886;20.354;2022-08-21T01:48:19;27.55;;;23.55;;
54657;SDS011;56972;43.886;20.354;2022-08-21T01:50:45;28.08;;;25.00;;
54657;SDS011;56972;43.886;20.354;2022-08-21T01:53:11;25.73;;;22.20;;
54657;SDS011;56972;43.886;20.354;2022-08-21T01:55:39;23.10;;;19.77;;
54657;SDS011;56972;43.886;20.354;2022-08-21T01:58:05;19.92;;;17.83;;
54657;SDS011;56972;43.886;20.354;2022-08-21T02:00:31;17.88;;;15.00;;
54657;SDS011;56972;43.886;20.354;2022-08-21T02:02:57;21.52;;;14.82;;
54657;SDS011;56972;43.886;20.354;2022-08-21T02:05:23;18.67;;;14.82;;
54657;SDS011;56972;43.886;20.354;2022-08-21T02:07:50;17.77;;;12.57;;
54657;SDS011;56972;43.886;20.354;2022-08-21T02:10:22;18.77;;;13.05;;
54657;SDS011;56972;43.886;20.354;2022-08-21T02:12:48;12.48;;;11.32;;
54657;SDS011;56972;43.886;20.354;2022-08-21T02:15:15;17.92;;;12.88;;
54657;SDS011;56972;43.886;20.354;2022-08-21T02:17:52;13.93;;;11.70;;
54657;SDS011;56972;43.886;20.354;2022-08-21T02:20:21;14.73;;;11.57;;
54657;SDS011;56972;43.886;20.354;2022-08-21T02:22:47;17.88;;;14.43;;
54657;SDS011;56972;43.886;20.354;2022-08-21T02:25:15;24.52;;;19.73;;
54657;SDS011;56972;43.886;20.354;2022-08-21T02:27:42;23.88;;;18.15;;
54657;SDS011;56972;43.886;20.354;2022-08-21T02:30:12;20.38;;;17.50;;
54657;SDS011;56972;43.886;20.354;2022-08-21T02:32:39;22.95;;;17.15;;
54657;SDS011;56972;43.886;20.354;2022-08-21T02:35:06;20.65;;;17.45;;
54657;SDS011;56972;43.886;20.354;2022-08-21T02:37:32;19.35;;;16.80;;
54657;SDS011;56972;43.886;20.354;2022-08-21T02:39:59;18.98;;;16.15;;
54657;SDS011;56972;43.886;20.354;2022-08-21T02:42:26;21.60;;;17.30;;
54657;SDS011;56972;43.886;20.354;2022-08-21T02:44:52;17.75;;;15.77;;
54657;SDS011;56972;43.886;20.354;2022-08-21T02:47:18;21.27;;;17.48;;
54657;SDS011;56972;43.886;20.354;2022-08-21T02:49:44;25.00;;;18.88;;
54657;SDS011;56972;43.886;20.354;2022-08-21T02:52:10;21.25;;;17.85;;
54657;SDS011;56972;43.886;20.354;2022-08-21T02:54:36;22.98;;;19.10;;
54657;SDS011;56972;43.886;20.354;2022-08-21T02:57:03;22.00;;;19.48;;
54657;SDS011;56972;43.886;20.354;2022-08-21T02:59:29;22.60;;;16.50;;
54657;SDS011;56972;43.886;20.354;2022-08-21T03:01:55;17.13;;;15.43;;
54657;SDS011;56972;43.886;20.354;2022-08-21T03:04:21;13.20;;;11.65;;
54657;SDS011;56972;43.886;20.354;2022-08-21T03:06:47;24.27;;;12.43;;
54657;SDS011;56972;43.886;20.354;2022-08-21T03:09:13;15.32;;;12.15;;
54657;SDS011;56972;43.886;20.354;2022-08-21T03:11:39;14.88;;;11.63;;
54657;SDS011;56972;43.886;20.354;2022-08-21T03:14:05;16.92;;;15.10;;
54657;SDS011;56972;43.886;20.354;2022-08-21T03:16:31;14.93;;;11.82;;
54657;SDS011;56972;43.886;20.354;2022-08-21T03:18:57;14.82;;;13.27;;
54657;SDS011;56972;43.886;20.354;2022-08-21T03:21:24;13.82;;;12.35;;
54657;SDS011;56972;43.886;20.354;2022-08-21T03:23:50;16.58;;;12.77;;
54657;SDS011;56972;43.886;20.354;2022-08-21T03:26:19;20.60;;;12.48;;
54657;SDS011;56972;43.886;20.354;2022-08-21T03:28:45;16.08;;;14.38;;
54657;SDS011;56972;43.886;20.354;2022-08-21T03:31:11;19.23;;;15.45;;
54657;SDS011;56972;43.886;20.354;2022-08-21T03:33:37;14.63;;;13.27;;
54657;SDS011;56972;43.886;20.354;2022-08-21T03:36:04;18.70;;;13.00;;
54657;SDS011;56972;43.886;20.354;2022-08-21T03:38:32;22.48;;;14.45;;
54657;SDS011;56972;43.886;20.354;2022-08-21T03:40:58;17.65;;;15.75;;
54657;SDS011;56972;43.886;20.354;2022-08-21T03:43:25;19.77;;;16.92;;
54657;SDS011;56972;43.886;20.354;2022-08-21T03:45:51;22.52;;;18.13;;
54657;SDS011;56972;43.886;20.354;2022-08-21T03:48:18;22.98;;;17.67;;
54657;SDS011;56972;43.886;20.354;2022-08-21T03:50:44;22.08;;;18.25;;
54657;SDS011;56972;43.886;20.354;2022-08-21T03:53:12;23.63;;;19.23;;
54657;SDS011;56972;43.886;20.354;2022-08-21T03:55:38;24.02;;;19.85;;
54657;SDS011;56972;43.886;20.354;2022-08-21T03:58:04;27.30;;;23.10;;
54657;SDS011;56972;43.886;20.354;2022-08-21T04:00:30;31.92;;;24.15;;
54657;SDS011;56972;43.886;20.354;2022-08-21T04:02:57;29.45;;;26.10;;
54657;SDS011;56972;43.886;20.354;2022-08-21T04:05:23;27.88;;;22.88;;
54657;SDS011;56972;43.886;20.354;2022-08-21T04:07:55;27.58;;;22.92;;
54657;SDS011;56972;43.886;20.354;2022-08-21T04:10:22;34.45;;;26.00;;
54657;SDS011;56972;43.886;20.354;2022-08-21T04:12:49;29.10;;;23.40;;
54657;SDS011;56972;43.886;20.354;2022-08-21T04:15:16;25.38;;;22.67;;
54657;SDS011;56972;43.886;20.354;2022-08-21T04:17:42;26.00;;;20.98;;
54657;SDS011;56972;43.886;20.354;2022-08-21T04:20:08;24.23;;;21.48;;
54657;SDS011;56972;43.886;20.354;2022-08-21T04:22:34;20.60;;;18.42;;
54657;SDS011;56972;43.886;20.354;2022-08-21T04:25:00;26.10;;;19.67;;
54657;SDS011;56972;43.886;20.354;2022-08-21T04:27:26;31.10;;;19.55;;
54657;SDS011;56972;43.886;20.354;2022-08-21T04:29:52;18.65;;;16.33;;
54657;SDS011;56972;43.886;20.354;2022-08-21T04:32:22;24.75;;;18.73;;
54657;SDS011;56972;43.886;20.354;2022-08-21T04:34:48;20.77;;;16.98;;
54657;SDS011;56972;43.886;20.354;2022-08-21T04:37:14;23.02;;;16.33;;
54657;SDS011;56972;43.886;20.354;2022-08-21T04:39:41;23.08;;;16.02;;
54657;SDS011;56972;43.886;20.354;2022-08-21T04:42:07;19.67;;;17.52;;
54657;SDS011;56972;43.886;20.354;2022-08-21T04:44:33;17.27;;;14.25;;
54657;SDS011;56972;43.886;20.354;2022-08-21T04:46:59;18.40;;;13.63;;
54657;SDS011;56972;43.886;20.354;2022-08-21T04:49:26;18.75;;;15.23;;
54657;SDS011;56972;43.886;20.354;2022-08-21T04:51:52;23.35;;;14.23;;
54657;SDS011;56972;43.886;20.354;2022-08-21T04:54:21;19.50;;;16.33;;
54657;SDS011;56972;43.886;20.354;2022-08-21T04:56:59;20.58;;;18.52;;
54657;SDS011;56972;43.886;20.354;2022-08-21T04:59:31;24.58;;;21.05;;
54657;SDS011;56972;43.886;20.354;2022-08-21T05:01:57;26.73;;;20.15;;
54657;SDS011;56972;43.886;20.354;2022-08-21T05:04:25;22.20;;;19.70;;
54657;SDS011;56972;43.886;20.354;2022-08-21T05:06:52;24.98;;;21.33;;
54657;SDS011;56972;43.886;20.354;2022-08-21T05:09:20;27.65;;;18.90;;
54657;SDS011;56972;43.886;20.354;2022-08-21T05:11:47;23.50;;;19.17;;
54657;SDS011;56972;43.886;20.354;2022-08-21T05:14:14;21.95;;;18.40;;
54657;SDS011;56972;43.886;20.354;2022-08-21T05:16:41;18.08;;;16.17;;
54657;SDS011;56972;43.886;20.354;2022-08-21T05:19:09;19.80;;;16.40;;
54657;SDS011;56972;43.886;20.354;2022-08-21T05:21:36;19.05;;;15.52;;
54657;SDS011;56972;43.886;20.354;2022-08-21T05:24:02;19.52;;;14.35;;
54657;SDS011;56972;43.886;20.354;2022-08-21T05:26:28;18.15;;;13.52;;
54657;SDS011;56972;43.886;20.354;2022-08-21T05:28:55;15.30;;;13.45;;
54657;SDS011;56972;43.886;20.354;2022-08-21T05:31:21;14.82;;;11.88;;
54657;SDS011;56972;43.886;20.354;2022-08-21T05:33:47;16.23;;;11.18;;
54657;SDS011;56972;43.886;20.354;2022-08-21T05:36:13;12.75;;;10.27;;
54657;SDS011;56972;43.886;20.354;2022-08-21T05:38:39;13.05;;;10.68;;
54657;SDS011;56972;43.886;20.354;2022-08-21T05:41:05;13.10;;;11.48;;
54657;SDS011;56972;43.886;20.354;2022-08-21T05:43:32;16.45;;;11.02;;
54657;SDS011;56972;43.886;20.354;2022-08-21T05:46:01;20.00;;;9.52;;
54657;SDS011;56972;43.886;20.354;2022-08-21T05:48:27;12.52;;;9.38;;
54657;SDS011;56972;43.886;20.354;2022-08-21T05:50:53;14.43;;;10.45;;
54657;SDS011;56972;43.886;20.354;2022-08-21T05:53:21;10.70;;;9.30;;
54657;SDS011;56972;43.886;20.354;2022-08-21T05:55:48;11.45;;;10.10;;
54657;SDS011;56972;43.886;20.354;2022-08-21T05:58:15;12.63;;;9.98;;
54657;SDS011;56972;43.886;20.354;2022-08-21T06:00:42;13.15;;;8.10;;
54657;SDS011;56972;43.886;20.354;2022-08-21T06:03:12;12.30;;;9.02;;
54657;SDS011;56972;43.886;20.354;2022-08-21T06:05:38;13.63;;;10.25;;
54657;SDS011;56972;43.886;20.354;2022-08-21T06:08:04;13.00;;;10.27;;
54657;SDS011;56972;43.886;20.354;2022-08-21T06:10:30;15.00;;;9.15;;
54657;SDS011;56972;43.886;20.354;2022-08-21T06:12:57;12.23;;;10.07;;
54657;SDS011;56972;43.886;20.354;2022-08-21T06:15:23;13.25;;;9.45;;
54657;SDS011;56972;43.886;20.354;2022-08-21T06:17:49;15.82;;;10.32;;
54657;SDS011;56972;43.886;20.354;2022-08-21T06:20:15;14.27;;;9.45;;
54657;SDS011;56972;43.886;20.354;2022-08-21T06:22:41;22.65;;;17.02;;
54657;SDS011;56972;43.886;20.354;2022-08-21T06:25:07;11.32;;;10.13;;
54657;SDS011;56972;43.886;20.354;2022-08-21T06:27:35;41.85;;;28.77;;
54657;SDS011;56972;43.886;20.354;2022-08-21T06:30:02;19.40;;;12.63;;
54657;SDS011;56972;43.886;20.354;2022-08-21T06:32:28;16.30;;;10.60;;
54657;SDS011;56972;43.886;20.354;2022-08-21T06:34:54;16.00;;;9.95;;
54657;SDS011;56972;43.886;20.354;2022-08-21T06:37:20;9.55;;;8.52;;
54657;SDS011;56972;43.886;20.354;2022-08-21T06:39:47;9.90;;;8.32;;
54657;SDS011;56972;43.886;20.354;2022-08-21T06:42:14;14.80;;;8.88;;
54657;SDS011;56972;43.886;20.354;2022-08-21T06:44:40;13.90;;;10.63;;
54657;SDS011;56972;43.886;20.354;2022-08-21T06:47:06;17.33;;;10.52;;
54657;SDS011;56972;43.886;20.354;2022-08-21T06:49:33;12.63;;;9.88;;
54657;SDS011;56972;43.886;20.354;2022-08-21T06:51:59;14.13;;;10.10;;
54657;SDS011;56972;43.886;20.354;2022-08-21T06:54:25;17.67;;;9.43;;
54657;SDS011;56972;43.886;20.354;2022-08-21T06:56:51;12.85;;;8.27;;
54657;SDS011;56972;43.886;20.354;2022-08-21T06:59:18;12.88;;;8.85;;
54657;SDS011;56972;43.886;20.354;2022-08-21T07:01:44;10.82;;;9.32;;
54657;SDS011;56972;43.886;20.354;2022-08-21T07:04:10;9.77;;;8.23;;
54657;SDS011;56972;43.886;20.354;2022-08-21T07:06:36;12.27;;;9.48;;
54657;SDS011;56972;43.886;20.354;2022-08-21T07:09:02;11.60;;;8.13;;
54657;SDS011;56972;43.886;20.354;2022-08-21T07:11:28;9.75;;;8.55;;
54657;SDS011;56972;43.886;20.354;2022-08-21T07:13:54;10.73;;;8.93;;
54657;SDS011;56972;43.886;20.354;2022-08-21T07:16:21;11.70;;;7.90;;
54657;SDS011;56972;43.886;20.354;2022-08-21T07:18:48;11.02;;;8.68;;
54657;SDS011;56972;43.886;20.354;2022-08-21T07:21:14;11.55;;;9.05;;
54657;SDS011;56972;43.886;20.354;2022-08-21T07:23:41;13.88;;;9.68;;
54657;SDS011;56972;43.886;20.354;2022-08-21T07:26:08;11.75;;;8.48;;
54657;SDS011;56972;43.886;20.354;2022-08-21T07:28:34;13.23;;;8.93;;
54657;SDS011;56972;43.886;20.354;2022-08-21T07:31:01;14.50;;;9.77;;
54657;SDS011;56972;43.886;20.354;2022-08-21T07:33:28;12.00;;;8.95;;
54657;SDS011;56972;43.886;20.354;2022-08-21T07:35:54;14.65;;;9.88;;
54657;SDS011;56972;43.886;20.354;2022-08-21T07:38:20;12.80;;;9.35;;
54657;SDS011;56972;43.886;20.354;2022-08-21T07:40:47;9.43;;;7.80;;
54657;SDS011;56972;43.886;20.354;2022-08-21T07:43:14;13.75;;;9.30;;
54657;SDS011;56972;43.886;20.354;2022-08-21T07:45:42;14.95;;;9.85;;
54657;SDS011;56972;43.886;20.354;2022-08-21T07:48:08;14.02;;;10.15;;
54657;SDS011;56972;43.886;20.354;2022-08-21T07:50:34;12.20;;;9.20;;
54657;SDS011;56972;43.886;20.354;2022-08-21T07:53:01;13.55;;;9.52;;
54657;SDS011;56972;43.886;20.354;2022-08-21T07:55:27;15.60;;;10.20;;
54657;SDS011;56972;43.886;20.354;2022-08-21T07:57:53;12.38;;;10.13;;
54657;SDS011;56972;43.886;20.354;2022-08-21T08:00:20;14.50;;;10.25;;
54657;SDS011;56972;43.886;20.354;2022-08-21T08:02:48;14.70;;;10.05;;
54657;SDS011;56972;43.886;20.354;2022-08-21T08:05:15;12.18;;;9.93;;
54657;SDS011;56972;43.886;20.354;2022-08-21T08:07:41;16.83;;;10.20;;
54657;SDS011;56972;43.886;20.354;2022-08-21T08:10:08;12.32;;;10.20;;
54657;SDS011;56972;43.886;20.354;2022-08-21T08:12:37;10.98;;;8.40;;
54657;SDS011;56972;43.886;20.354;2022-08-21T08:15:05;11.75;;;10.38;;
54657;SDS011;56972;43.886;20.354;2022-08-21T08:17:31;14.45;;;10.48;;
54657;SDS011;56972;43.886;20.354;2022-08-21T08:19:58;14.50;;;11.18;;
54657;SDS011;56972;43.886;20.354;2022-08-21T08:22:25;14.02;;;11.07;;
54657;SDS011;56972;43.886;20.354;2022-08-21T08:24:52;12.07;;;10.82;;
54657;SDS011;56972;43.886;20.354;2022-08-21T08:27:18;12.15;;;9.55;;
54657;SDS011;56972;43.886;20.354;2022-08-21T08:29:45;11.45;;;9.40;;
54657;SDS011;56972;43.886;20.354;2022-08-21T08:32:11;12.23;;;8.80;;
54657;SDS011;56972;43.886;20.354;2022-08-21T08:34:38;12.88;;;9.45;;
54657;SDS011;56972;43.886;20.354;2022-08-21T08:37:06;9.38;;;8.23;;
54657;SDS011;56972;43.886;20.354;2022-08-21T08:39:33;13.95;;;8.68;;
54657;SDS011;56972;43.886;20.354;2022-08-21T08:42:03;8.80;;;7.57;;
54657;SDS011;56972;43.886;20.354;2022-08-21T08:44:30;12.32;;;8.82;;
54657;SDS011;56972;43.886;20.354;2022-08-21T08:46:56;13.82;;;9.45;;
54657;SDS011;56972;43.886;20.354;2022-08-21T08:49:30;8.60;;;7.35;;
54657;SDS011;56972;43.886;20.354;2022-08-21T08:52:04;10.50;;;8.15;;
54657;SDS011;56972;43.886;20.354;2022-08-21T08:54:32;11.20;;;8.48;;
54657;SDS011;56972;43.886;20.354;2022-08-21T08:57:00;10.15;;;7.22;;
54657;SDS011;56972;43.886;20.354;2022-08-21T08:59:27;8.18;;;7.28;;
54657;SDS011;56972;43.886;20.354;2022-08-21T09:01:55;11.40;;;6.43;;
54657;SDS011;56972;43.886;20.354;2022-08-21T09:04:22;9.35;;;6.30;;
54657;SDS011;56972;43.886;20.354;2022-08-21T09:06:53;21.33;;;7.35;;
54657;SDS011;56972;43.886;20.354;2022-08-21T09:14:26;11.23;;;8.63;;
54657;SDS011;56972;43.886;20.354;2022-08-21T09:22:23;6.18;;;4.88;;
54657;SDS011;56972;43.886;20.354;2022-08-21T09:27:25;6.47;;;4.22;;
54657;SDS011;56972;43.886;20.354;2022-08-21T09:29:52;6.50;;;3.70;;
54657;SDS011;56972;43.886;20.354;2022-08-21T09:32:20;5.72;;;3.55;;
54657;SDS011;56972;43.886;20.354;2022-08-21T09:34:57;5.55;;;3.60;;
54657;SDS011;56972;43.886;20.354;2022-08-21T09:37:23;5.32;;;3.47;;
54657;SDS011;56972;43.886;20.354;2022-08-21T09:39:50;4.60;;;3.65;;
54657;SDS011;56972;43.886;20.354;2022-08-21T09:42:24;5.57;;;4.28;;
54657;SDS011;56972;43.886;20.354;2022-08-21T09:45:04;7.18;;;4.32;;
54657;SDS011;56972;43.886;20.354;2022-08-21T09:47:30;5.60;;;4.00;;
54657;SDS011;56972;43.886;20.354;2022-08-21T09:49:56;9.95;;;5.82;;
54657;SDS011;56972;43.886;20.354;2022-08-21T09:52:32;8.77;;;6.65;;
54657;SDS011;56972;43.886;20.354;2022-08-21T09:54:58;8.85;;;6.43;;
54657;SDS011;56972;43.886;20.354;2022-08-21T09:57:29;11.93;;;8.25;;
54657;SDS011;56972;43.886;20.354;2022-08-21T10:02:50;11.65;;;7.57;;
54657;SDS011;56972;43.886;20.354;2022-08-21T10:05:20;10.45;;;8.50;;
54657;SDS011;56972;43.886;20.354;2022-08-21T10:07:47;13.38;;;9.45;;
54657;SDS011;56972;43.886;20.354;2022-08-21T10:10:16;12.63;;;8.68;;
54657;SDS011;56972;43.886;20.354;2022-08-21T10:15:56;12.63;;;8.32;;
54657;SDS011;56972;43.886;20.354;2022-08-21T10:20:42;12.27;;;6.95;;
54657;SDS011;56972;43.886;20.354;2022-08-21T10:34:33;8.13;;;6.07;;
54657;SDS011;56972;43.886;20.354;2022-08-21T10:36:33;8.85;;;6.43;;
54657;SDS011;56972;43.886;20.354;2022-08-21T10:49:07;8.95;;;4.95;;
54657;SDS011;56972;43.886;20.354;2022-08-21T10:52:22;7.15;;;4.90;;
54657;SDS011;56972;43.886;20.354;2022-08-21T10:54:32;8.13;;;5.75;;
54657;SDS011;56972;43.886;20.354;2022-08-21T10:57:07;13.18;;;7.53;;
54657;SDS011;56972;43.886;20.354;2022-08-21T11:02:03;6.88;;;4.57;;
54657;SDS011;56972;43.886;20.354;2022-08-21T11:07:06;5.88;;;3.65;;
54657;SDS011;56972;43.886;20.354;2022-08-21T11:09:34;6.68;;;5.20;;
54657;SDS011;56972;43.886;20.354;2022-08-21T11:12:05;5.38;;;4.20;;
54657;SDS011;56972;43.886;20.354;2022-08-21T11:17:18;4.43;;;2.50;;
54657;SDS011;56972;43.886;20.354;2022-08-21T11:20:07;5.10;;;2.60;;
54657;SDS011;56972;43.886;20.354;2022-08-21T11:22:54;4.85;;;2.33;;
54657;SDS011;56972;43.886;20.354;2022-08-21T11:25:25;5.40;;;3.47;;
54657;SDS011;56972;43.886;20.354;2022-08-21T11:28:10;4.70;;;3.08;;
54657;SDS011;56972;43.886;20.354;2022-08-21T11:30:47;4.72;;;2.63;;
54657;SDS011;56972;43.886;20.354;2022-08-21T11:36:06;5.13;;;2.22;;
54657;SDS011;56972;43.886;20.354;2022-08-21T11:38:35;5.65;;;3.28;;
54657;SDS011;56972;43.886;20.354;2022-08-21T11:43:46;6.40;;;3.65;;
54657;SDS011;56972;43.886;20.354;2022-08-21T11:46:35;9.57;;;3.38;;
54657;SDS011;56972;43.886;20.354;2022-08-21T11:49:13;6.90;;;3.22;;
54657;SDS011;56972;43.886;20.354;2022-08-21T11:52:05;4.35;;;3.35;;
54657;SDS011;56972;43.886;20.354;2022-08-21T11:59:47;7.53;;;4.05;;
54657;SDS011;56972;43.886;20.354;2022-08-21T12:02:16;6.18;;;4.03;;
54657;SDS011;56972;43.886;20.354;2022-08-21T12:04:45;5.18;;;4.20;;
54657;SDS011;56972;43.886;20.354;2022-08-21T12:07:16;5.93;;;4.63;;
54657;SDS011;56972;43.886;20.354;2022-08-21T12:09:53;6.53;;;5.20;;
54657;SDS011;56972;43.886;20.354;2022-08-21T12:14:49;9.52;;;7.28;;
54657;SDS011;56972;43.886;20.354;2022-08-21T12:17:20;9.98;;;8.27;;
54657;SDS011;56972;43.886;20.354;2022-08-21T12:19:56;11.38;;;9.20;;
54657;SDS011;56972;43.886;20.354;2022-08-21T12:22:23;9.98;;;8.98;;
54657;SDS011;56972;43.886;20.354;2022-08-21T12:25:06;9.93;;;8.40;;
54657;SDS011;56972;43.886;20.354;2022-08-21T12:27:53;10.38;;;9.27;;
54657;SDS011;56972;43.886;20.354;2022-08-21T12:30:41;14.68;;;11.80;;
54657;SDS011;56972;43.886;20.354;2022-08-21T12:33:17;15.50;;;13.98;;
54657;SDS011;56972;43.886;20.354;2022-08-21T12:35:43;16.77;;;15.18;;
54657;SDS011;56972;43.886;20.354;2022-08-21T12:38:23;17.67;;;14.98;;
54657;SDS011;56972;43.886;20.354;2022-08-21T12:40:53;17.60;;;15.70;;
54657;SDS011;56972;43.886;20.354;2022-08-21T12:43:23;18.20;;;16.25;;
54657;SDS011;56972;43.886;20.354;2022-08-21T12:45:50;17.75;;;15.50;;
54657;SDS011;56972;43.886;20.354;2022-08-21T12:48:28;15.80;;;14.02;;
54657;SDS011;56972;43.886;20.354;2022-08-21T12:51:05;15.20;;;13.57;;
54657;SDS011;56972;43.886;20.354;2022-08-21T12:53:34;21.35;;;17.30;;
54657;SDS011;56972;43.886;20.354;2022-08-21T12:56:02;17.35;;;15.68;;
54657;SDS011;56972;43.886;20.354;2022-08-21T12:58:29;17.42;;;15.63;;
54657;SDS011;56972;43.886;20.354;2022-08-21T13:01:06;17.13;;;15.40;;
54657;SDS011;56972;43.886;20.354;2022-08-21T13:03:35;18.27;;;16.38;;
54657;SDS011;56972;43.886;20.354;2022-08-21T13:06:02;18.15;;;16.25;;
54657;SDS011;56972;43.886;20.354;2022-08-21T13:08:29;17.83;;;16.05;;
54657;SDS011;56972;43.886;20.354;2022-08-21T13:11:05;16.75;;;15.02;;
54657;SDS011;56972;43.886;20.354;2022-08-21T13:13:32;19.55;;;17.55;;
54657;SDS011;56972;43.886;20.354;2022-08-21T13:15:59;18.52;;;16.63;;
54657;SDS011;56972;43.886;20.354;2022-08-21T13:18:27;19.77;;;16.92;;
54657;SDS011;56972;43.886;20.354;2022-08-21T13:21:55;19.83;;;17.73;;
54657;SDS011;56972;43.886;20.354;2022-08-21T13:23:49;20.77;;;18.67;;
54657;SDS011;56972;43.886;20.354;2022-08-21T13:26:18;20.95;;;18.08;;
54657;SDS011;56972;43.886;20.354;2022-08-21T13:28:45;21.73;;;19.55;;
54657;SDS011;56972;43.886;20.354;2022-08-21T13:31:12;23.30;;;21.00;;
54657;SDS011;56972;43.886;20.354;2022-08-21T13:33:39;19.45;;;17.42;;
54657;SDS011;56972;43.886;20.354;2022-08-21T13:36:09;24.08;;;19.52;;
54657;SDS011;56972;43.886;20.354;2022-08-21T13:38:36;17.17;;;15.48;;
54657;SDS011;56972;43.886;20.354;2022-08-21T13:41:04;17.95;;;15.48;;
54657;SDS011;56972;43.886;20.354;2022-08-21T13:43:32;16.90;;;15.02;;
54657;SDS011;56972;43.886;20.354;2022-08-21T13:45:59;19.67;;;17.30;;
54657;SDS011;56972;43.886;20.354;2022-08-21T13:48:26;18.90;;;16.75;;
54657;SDS011;56972;43.886;20.354;2022-08-21T13:50:54;17.23;;;15.43;;
54657;SDS011;56972;43.886;20.354;2022-08-21T13:55:47;15.30;;;12.52;;
54657;SDS011;56972;43.886;20.354;2022-08-21T13:58:13;16.20;;;13.77;;
54657;SDS011;56972;43.886;20.354;2022-08-21T14:00:50;14.30;;;12.75;;
54657;SDS011;56972;43.886;20.354;2022-08-21T14:03:42;13.80;;;12.32;;
54657;SDS011;56972;43.886;20.354;2022-08-21T14:06:12;15.00;;;11.40;;
54657;SDS011;56972;43.886;20.354;2022-08-21T14:08:40;14.95;;;11.77;;
54657;SDS011;56972;43.886;20.354;2022-08-21T14:11:09;11.65;;;10.52;;
54657;SDS011;56972;43.886;20.354;2022-08-21T14:13:39;10.13;;;9.13;;
54657;SDS011;56972;43.886;20.354;2022-08-21T14:16:14;12.10;;;10.90;;
54657;SDS011;56972;43.886;20.354;2022-08-21T14:21:40;14.63;;;13.15;;
54657;SDS011;56972;43.886;20.354;2022-08-21T14:24:10;13.48;;;12.15;;
54657;SDS011;56972;43.886;20.354;2022-08-21T14:26:48;13.02;;;11.68;;
54657;SDS011;56972;43.886;20.354;2022-08-21T14:29:15;17.60;;;13.07;;
54657;SDS011;56972;43.886;20.354;2022-08-21T14:31:41;15.82;;;14.15;;
54657;SDS011;56972;43.886;20.354;2022-08-21T14:34:09;15.90;;;13.75;;
54657;SDS011;56972;43.886;20.354;2022-08-21T14:36:36;22.80;;;16.85;;
54657;SDS011;56972;43.886;20.354;2022-08-21T14:39:02;16.60;;;14.45;;
54657;SDS011;56972;43.886;20.354;2022-08-21T14:41:28;15.52;;;13.93;;
54657;SDS011;56972;43.886;20.354;2022-08-21T14:43:55;16.67;;;12.77;;
54657;SDS011;56972;43.886;20.354;2022-08-21T14:46:24;13.40;;;10.00;;
54657;SDS011;56972;43.886;20.354;2022-08-21T14:48:51;14.10;;;12.52;;
54657;SDS011;56972;43.886;20.354;2022-08-21T14:51:17;11.82;;;10.70;;
54657;SDS011;56972;43.886;20.354;2022-08-21T14:53:43;11.70;;;10.32;;
54657;SDS011;56972;43.886;20.354;2022-08-21T14:56:10;12.90;;;11.45;;
54657;SDS011;56972;43.886;20.354;2022-08-21T14:58:39;10.90;;;9.80;;
54657;SDS011;56972;43.886;20.354;2022-08-21T15:01:06;11.65;;;9.25;;
54657;SDS011;56972;43.886;20.354;2022-08-21T15:03:33;11.35;;;8.40;;
54657;SDS011;56972;43.886;20.354;2022-08-21T15:05:59;9.38;;;8.48;;
54657;SDS011;56972;43.886;20.354;2022-08-21T15:08:25;10.30;;;9.10;;
54657;SDS011;56972;43.886;20.354;2022-08-21T15:10:52;10.70;;;8.65;;
54657;SDS011;56972;43.886;20.354;2022-08-21T15:13:18;10.18;;;8.95;;
54657;SDS011;56972;43.886;20.354;2022-08-21T15:15:45;10.85;;;9.52;;
54657;SDS011;56972;43.886;20.354;2022-08-21T15:18:12;11.05;;;10.00;;
54657;SDS011;56972;43.886;20.354;2022-08-21T15:20:39;10.30;;;8.80;;
54657;SDS011;56972;43.886;20.354;2022-08-21T15:23:05;10.10;;;8.35;;
54657;SDS011;56972;43.886;20.354;2022-08-21T15:25:32;13.40;;;10.30;;
54657;SDS011;56972;43.886;20.354;2022-08-21T15:27:58;16.92;;;11.00;;
54657;SDS011;56972;43.886;20.354;2022-08-21T15:30:25;15.77;;;10.45;;